createdAt,value
2022-08-20T00:07:58.946Z,3.11
2022-08-20T00:18:59.305Z,3.11
2022-08-20T00:30:00.992Z,3.11
2022-08-20T00:41:03.759Z,3.11
2022-08-20T00:52:05.500Z,3.11
2022-08-20T01:03:05.796Z,3.11
2022-08-20T01:14:06.451Z,3.10
2022-08-20T01:25:08.394Z,3.10
2022-08-20T01:36:08.845Z,3.10
2022-08-20T01:47:09.312Z,3.10
2022-08-20T01:58:11.491Z,3.10
2022-08-20T02:09:15.930Z,3.09
2022-08-20T02:20:18.003Z,3.09
2022-08-20T02:31:19.165Z,3.09
2022-08-20T02:42:21.219Z,3.08
2022-08-20T02:53:22.120Z,3.08
2022-08-20T03:04:24.269Z,3.08
2022-08-20T03:15:26.779Z,3.07
2022-08-20T03:26:28.373Z,3.07
2022-08-20T03:37:28.651Z,3.07
2022-08-20T03:48:27.868Z,3.07
2022-08-20T03:59:25.514Z,3.06
2022-08-20T04:10:26.852Z,3.06
2022-08-20T04:21:04.784Z,3.05
2022-08-20T04:32:05.853Z,3.06
2022-08-20T04:42:43.559Z,3.05
2022-08-20T04:53:43.234Z,3.06
2022-08-20T05:04:42.398Z,3.07
2022-08-20T05:15:19.576Z,3.07
2022-08-20T05:26:22.064Z,3.07
2022-08-20T05:37:24.655Z,3.08
2022-08-20T05:48:26.826Z,3.08
2022-08-20T05:59:29.861Z,3.09
2022-08-20T06:10:31.145Z,3.11
2022-08-20T06:21:33.099Z,3.13
2022-08-20T06:32:35.138Z,3.15
2022-08-20T06:43:37.955Z,3.16
2022-08-20T06:54:38.738Z,3.17
2022-08-20T07:05:23.164Z,3.18
2022-08-20T07:16:03.741Z,3.19
2022-08-20T07:27:05.775Z,3.21
2022-08-20T07:38:07.194Z,3.22
2022-08-20T07:48:57.807Z,3.25
2022-08-20T07:59:40.168Z,3.26
2022-08-20T08:10:41.220Z,3.27
2022-08-20T08:21:41.551Z,3.29
2022-08-20T08:32:41.941Z,3.30
2022-08-20T08:43:43.410Z,3.35
2022-08-20T08:54:45.157Z,3.29
2022-08-20T09:05:19.555Z,3.33
2022-08-20T09:16:16.587Z,3.32
2022-08-20T09:27:16.815Z,3.32
2022-08-20T09:38:15.743Z,3.32
2022-08-20T09:49:13.596Z,3.33
2022-08-20T10:00:13.450Z,3.34
2022-08-20T10:11:02.455Z,3.34
2022-08-20T10:22:01.737Z,3.33
2022-08-20T10:33:00.987Z,3.33
2022-08-20T10:44:00.456Z,3.34
2022-08-20T10:55:01.157Z,3.33
2022-08-20T11:06:00.485Z,3.33
2022-08-20T11:16:55.305Z,3.34
2022-08-20T11:27:50.802Z,3.34
2022-08-20T11:38:52.212Z,3.34
2022-08-20T11:49:52.701Z,3.34
2022-08-20T12:00:53.312Z,3.34
2022-08-20T12:11:52.329Z,3.36
2022-08-20T12:22:48.647Z,3.34
2022-08-20T12:33:44.556Z,3.34
2022-08-20T12:44:39.773Z,3.34
2022-08-20T12:55:39.555Z,3.34
2022-08-20T13:06:37.329Z,3.34
2022-08-20T13:17:32.786Z,3.34
2022-08-20T13:28:35.065Z,3.33
2022-08-20T13:39:13.978Z,3.34
2022-08-20T13:50:05.011Z,3.34
2022-08-20T14:00:40.084Z,3.33
2022-08-20T14:11:33.625Z,3.34
2022-08-20T14:22:07.682Z,3.33
2022-08-20T14:33:07.490Z,3.34
2022-08-20T14:44:07.322Z,3.34
2022-08-20T14:55:06.063Z,3.34
2022-08-20T15:06:01.162Z,3.38
2022-08-20T15:16:40.048Z,3.37
2022-08-20T15:27:24.022Z,3.37
2022-08-20T15:38:18.186Z,3.38
2022-08-20T15:49:17.758Z,3.39
2022-08-20T15:59:54.966Z,3.38
2022-08-20T16:10:42.053Z,3.38
2022-08-20T16:21:37.203Z,3.38
2022-08-20T16:32:37.136Z,3.38
2022-08-20T16:43:36.715Z,3.37
2022-08-20T16:54:37.116Z,3.38
2022-08-20T17:05:30.719Z,3.38
2022-08-20T17:16:30.926Z,3.37
2022-08-20T17:27:19.348Z,3.34
2022-08-20T17:38:20.920Z,3.33
2022-08-20T17:49:20.563Z,3.32
2022-08-20T18:00:20.144Z,3.31
2022-08-20T18:11:17.009Z,3.30
2022-08-20T18:22:13.821Z,3.29
2022-08-20T18:33:14.450Z,3.29
2022-08-20T18:44:03.400Z,3.28
2022-08-20T18:54:38.036Z,3.26
2022-08-20T19:05:32.195Z,3.26
2022-08-20T19:16:07.326Z,3.25
2022-08-20T19:27:09.187Z,3.25
2022-08-20T19:38:09.901Z,3.25
2022-08-20T19:49:11.550Z,3.25
2022-08-20T20:00:06.992Z,3.24
2022-08-20T20:11:07.848Z,3.24
2022-08-20T20:22:18.786Z,3.23
2022-08-20T20:33:07.734Z,3.23
2022-08-20T20:44:08.493Z,3.23
2022-08-20T20:55:03.115Z,3.22
2022-08-20T21:06:01.702Z,3.22
2022-08-20T21:16:59.482Z,3.22
2022-08-20T21:28:01.036Z,3.21
2022-08-20T21:39:02.475Z,3.21
2022-08-20T21:49:59.462Z,3.21
2022-08-20T22:00:58.370Z,3.21
2022-08-20T22:12:00.735Z,3.20
2022-08-20T22:23:01.758Z,3.20
2022-08-20T22:34:02.949Z,3.19
2022-08-20T22:45:01.612Z,3.19
2022-08-20T22:56:02.031Z,3.19
2022-08-20T23:07:00.955Z,3.19
2022-08-20T23:17:54.475Z,3.18
2022-08-20T23:28:30.514Z,3.17
2022-08-20T23:39:09.326Z,3.16
2022-08-20T23:50:09.639Z,3.16
